Time;durP1;ratioP1;P1;durP2;ratioP2;P2;SDS_P1;SDS_P2;PMS_P1;PMS_P2;Temp;Humidity;BMP_temperature;BMP_pressure;BME280_temperature;BME280_humidity;BME280_pressure;Samples;Min_cycle;Max_cycle;Signal;HPM_P1;HPM_P2
2022/02/25 00:01:12;;;;;;;144.05;53.90;;;;;;;;;;6336435;22;20569;-96
2022/02/25 00:03:39;;;;;;;148.68;54.63;;;;;;;;;;6360662;22;20614;-96
2022/02/25 04:17:47;;;;;;;148.13;50.63;;;;;;;;;;6340502;22;20257;-96
2022/02/25 04:20:14;;;;;;;143.20;49.63;;;;;;;;;;6368635;22;20189;-94
2022/02/25 04:34:01;;;;;;;145.10;51.22;;;;;;;;;;6277368;22;20284;-96
2022/02/25 04:36:28;;;;;;;152.38;51.92;;;;;;;;;;6361498;22;20170;-96
2022/02/25 04:38:54;;;;;;;152.60;51.30;;;;;;;;;;6359970;22;20191;-96
2022/02/25 04:41:30;;;;;;;144.07;50.42;;;;;;;;;;6360387;22;20204;-96
2022/02/25 04:52:36;;;;;;;141.35;50.60;;;;;;;;;;6377147;22;20200;-96
2022/02/25 04:55:03;;;;;;;143.27;51.03;;;;;;;;;;6381316;22;20221;-96
2022/02/25 04:57:30;;;;;;;144.80;52.08;;;;;;;;;;6384338;22;20198;-96
2022/02/25 04:59:56;;;;;;;147.45;52.13;;;;;;;;;;6381598;22;20184;-95
2022/02/25 05:02:23;;;;;;;147.25;52.08;;;;;;;;;;6382464;22;20301;-96
2022/02/25 05:07:58;;;;;;;145.35;51.17;;;;;;;;;;6388714;22;20163;-96
2022/02/25 05:10:26;;;;;;;149.95;52.22;;;;;;;;;;6390394;22;20574;-96
2022/02/25 05:12:52;;;;;;;150.30;52.33;;;;;;;;;;6385111;22;20191;-96
2022/02/25 05:20:47;;;;;;;156.52;52.95;;;;;;;;;;6383071;22;20252;-96
2022/02/25 05:23:27;;;;;;;146.45;52.40;;;;;;;;;;6390716;22;20178;-96
2022/02/25 05:31:27;;;;;;;145.88;51.58;;;;;;;;;;6344421;22;20185;-96
2022/02/25 05:34:02;;;;;;;144.00;52.15;;;;;;;;;;6366692;22;20201;-96
2022/02/25 05:36:29;;;;;;;155.35;53.88;;;;;;;;;;6325865;22;20176;-95
2022/02/25 05:38:56;;;;;;;160.15;53.97;;;;;;;;;;6350409;22;20231;-96
2022/02/25 05:41:23;;;;;;;154.02;53.35;;;;;;;;;;6351406;22;20196;-95
2022/02/25 05:43:50;;;;;;;151.68;55.00;;;;;;;;;;6351266;22;20204;-95
2022/02/25 05:46:17;;;;;;;160.98;54.17;;;;;;;;;;6350543;22;20231;-94
2022/02/25 05:48:43;;;;;;;149.77;54.30;;;;;;;;;;6350297;22;20188;-95
2022/02/25 05:51:10;;;;;;;161.13;54.30;;;;;;;;;;6351641;22;20173;-95
2022/02/25 05:53:36;;;;;;;159.40;53.25;;;;;;;;;;6354591;22;20216;-96
2022/02/25 05:56:05;;;;;;;158.93;54.90;;;;;;;;;;6355098;22;20169;-96
2022/02/25 05:58:31;;;;;;;157.65;55.15;;;;;;;;;;6353295;22;20169;-96
2022/02/25 06:00:58;;;;;;;163.02;56.00;;;;;;;;;;6351593;22;20200;-96
2022/02/25 06:03:24;;;;;;;168.50;54.95;;;;;;;;;;6351569;22;20173;-96
2022/02/25 06:05:51;;;;;;;166.90;56.95;;;;;;;;;;6348667;22;20195;-95
2022/02/25 06:08:18;;;;;;;162.43;54.13;;;;;;;;;;6348214;22;20173;-95
2022/02/25 06:10:45;;;;;;;169.25;55.38;;;;;;;;;;6349137;22;20177;-93
2022/02/25 06:13:13;;;;;;;170.15;56.95;;;;;;;;;;6349852;22;20173;-94
2022/02/25 06:15:39;;;;;;;185.15;59.58;;;;;;;;;;6350924;22;20177;-88
2022/02/25 06:18:06;;;;;;;175.95;56.17;;;;;;;;;;6350877;22;20177;-88
2022/02/25 06:20:32;;;;;;;174.10;57.58;;;;;;;;;;6350731;22;20173;-92
2022/02/25 06:22:59;;;;;;;186.32;59.45;;;;;;;;;;6350906;22;20169;-92
2022/02/25 06:25:25;;;;;;;187.27;58.47;;;;;;;;;;6344306;22;20177;-93
2022/02/25 06:27:52;;;;;;;183.40;60.42;;;;;;;;;;6349336;22;20173;-92
2022/02/25 06:30:20;;;;;;;186.68;60.03;;;;;;;;;;6349567;22;20193;-93
2022/02/25 06:32:46;;;;;;;177.18;58.42;;;;;;;;;;6345642;22;20193;-95
2022/02/25 06:35:13;;;;;;;182.90;60.30;;;;;;;;;;6348898;22;20174;-94
2022/02/25 06:37:40;;;;;;;184.40;62.25;;;;;;;;;;6349398;22;20174;-94
2022/02/25 06:40:08;;;;;;;186.80;64.85;;;;;;;;;;6348435;22;20173;-95
2022/02/25 06:42:34;;;;;;;180.55;62.10;;;;;;;;;;6348348;22;20223;-94
2022/02/25 06:45:01;;;;;;;184.48;62.67;;;;;;;;;;6348572;22;20173;-94
2022/02/25 06:47:29;;;;;;;175.93;61.35;;;;;;;;;;6349116;22;20173;-94
2022/02/25 06:49:55;;;;;;;179.32;63.05;;;;;;;;;;6349085;22;20198;-95
2022/02/25 06:52:22;;;;;;;188.20;62.70;;;;;;;;;;6346288;22;20599;-94
2022/02/25 06:54:48;;;;;;;185.93;63.63;;;;;;;;;;6346699;22;20169;-95
2022/02/25 06:57:15;;;;;;;195.15;60.65;;;;;;;;;;6347696;22;20223;-96
2022/02/25 06:59:41;;;;;;;187.85;63.00;;;;;;;;;;6347979;22;20203;-93
2022/02/25 07:02:08;;;;;;;187.55;63.58;;;;;;;;;;6345118;22;20250;-93
2022/02/25 07:04:36;;;;;;;176.98;61.70;;;;;;;;;;6348625;22;20203;-93
2022/02/25 07:07:03;;;;;;;193.05;60.47;;;;;;;;;;6347633;22;20173;-92
2022/02/25 07:09:30;;;;;;;210.27;64.55;;;;;;;;;;6346802;22;20187;-92
2022/02/25 07:11:56;;;;;;;203.32;66.40;;;;;;;;;;6340996;22;20631;-91
2022/02/25 07:14:23;;;;;;;217.50;69.38;;;;;;;;;;6340904;22;20535;-91
2022/02/25 07:16:49;;;;;;;203.60;65.60;;;;;;;;;;6345959;22;20173;-92
2022/02/25 07:19:15;;;;;;;236.00;66.80;;;;;;;;;;6347934;22;20207;-92
2022/02/25 07:21:43;;;;;;;222.82;64.10;;;;;;;;;;6348061;22;20227;-92
2022/02/25 07:24:10;;;;;;;297.50;68.15;;;;;;;;;;6349644;22;20174;-91
2022/02/25 07:26:37;;;;;;;213.45;62.22;;;;;;;;;;6347783;22;20219;-91
2022/02/25 07:29:05;;;;;;;198.00;61.85;;;;;;;;;;6345670;22;20248;-91
2022/02/25 07:31:32;;;;;;;207.38;61.95;;;;;;;;;;6341871;22;20258;-91
2022/02/25 07:33:58;;;;;;;193.13;60.50;;;;;;;;;;6346283;22;20173;-91
2022/02/25 07:36:25;;;;;;;215.73;61.97;;;;;;;;;;6344557;22;20206;-91
2022/02/25 07:38:53;;;;;;;197.30;58.67;;;;;;;;;;6346196;22;20634;-91
2022/02/25 07:41:19;;;;;;;178.18;58.55;;;;;;;;;;6346309;22;20770;-93
2022/02/25 07:43:45;;;;;;;199.05;59.13;;;;;;;;;;6347705;22;20173;-92
2022/02/25 07:46:12;;;;;;;183.68;63.58;;;;;;;;;;6341713;22;20173;-93
2022/02/25 07:48:39;;;;;;;185.98;66.25;;;;;;;;;;6345495;22;20174;-93
2022/02/25 07:51:05;;;;;;;191.77;67.88;;;;;;;;;;6346974;22;20208;-93
2022/02/25 07:53:34;;;;;;;194.27;65.60;;;;;;;;;;6346557;22;20203;-91
2022/02/25 07:56:02;;;;;;;222.95;67.95;;;;;;;;;;6346417;22;20173;-94
2022/02/25 07:58:29;;;;;;;203.55;69.65;;;;;;;;;;6346839;22;20510;-95
2022/02/25 08:00:56;;;;;;;202.98;67.70;;;;;;;;;;6347127;22;20225;-93
2022/02/25 08:03:23;;;;;;;199.60;65.25;;;;;;;;;;6348629;22;20249;-93
2022/02/25 08:05:49;;;;;;;217.57;70.70;;;;;;;;;;6346568;22;20174;-94
2022/02/25 08:08:15;;;;;;;234.20;68.88;;;;;;;;;;6347253;22;20200;-94
2022/02/25 08:10:42;;;;;;;218.10;65.95;;;;;;;;;;6342401;22;20199;-94
2022/02/25 08:13:11;;;;;;;219.32;66.32;;;;;;;;;;6349696;22;20207;-94
2022/02/25 08:15:37;;;;;;;206.43;62.20;;;;;;;;;;6352666;22;20173;-96
2022/02/25 08:18:04;;;;;;;210.40;61.65;;;;;;;;;;6355631;22;20174;-96
2022/02/25 08:20:31;;;;;;;218.63;64.28;;;;;;;;;;6348833;22;20203;-96
2022/02/25 08:23:00;;;;;;;201.93;61.20;;;;;;;;;;6350940;22;20247;-96
2022/02/25 08:25:26;;;;;;;201.98;62.97;;;;;;;;;;6351327;22;20197;-96
2022/02/25 08:27:53;;;;;;;190.73;60.70;;;;;;;;;;6350485;22;20177;-95
2022/02/25 08:30:21;;;;;;;197.75;62.30;;;;;;;;;;6352880;22;20200;-96
2022/02/25 08:32:48;;;;;;;187.90;59.85;;;;;;;;;;6352312;22;20197;-96
2022/02/25 08:35:15;;;;;;;207.73;60.10;;;;;;;;;;6349902;22;20161;-96
2022/02/25 08:37:42;;;;;;;190.52;58.92;;;;;;;;;;6346255;22;20169;-96
2022/02/25 08:40:09;;;;;;;192.93;58.20;;;;;;;;;;6346097;22;20173;-96
2022/02/25 08:42:37;;;;;;;196.50;59.47;;;;;;;;;;6345902;22;20233;-96
2022/02/25 08:45:04;;;;;;;204.73;59.70;;;;;;;;;;6347368;22;20705;-95
2022/02/25 08:47:32;;;;;;;221.65;60.67;;;;;;;;;;6349717;22;20173;-94
2022/02/25 08:49:58;;;;;;;216.23;62.58;;;;;;;;;;6348144;22;20178;-93
2022/02/25 08:52:25;;;;;;;212.88;60.22;;;;;;;;;;6350240;22;20203;-96
2022/02/25 08:54:52;;;;;;;212.02;63.50;;;;;;;;;;6344612;22;20260;-95
2022/02/25 08:57:19;;;;;;;197.35;57.13;;;;;;;;;;6346294;22;20178;-96
2022/02/25 08:59:46;;;;;;;209.48;61.30;;;;;;;;;;6347739;22;20173;-96
2022/02/25 09:02:12;;;;;;;205.57;61.03;;;;;;;;;;6349617;22;20196;-96
2022/02/25 09:04:42;;;;;;;214.57;60.80;;;;;;;;;;6351359;22;20173;-96
2022/02/25 09:07:09;;;;;;;218.90;63.13;;;;;;;;;;6351655;22;20193;-94
2022/02/25 09:09:35;;;;;;;204.65;63.25;;;;;;;;;;6349371;22;20170;-94
2022/02/25 09:12:02;;;;;;;214.45;64.45;;;;;;;;;;6347151;22;20177;-95
2022/02/25 09:14:29;;;;;;;215.73;62.67;;;;;;;;;;6347826;22;20174;-95
2022/02/25 09:16:56;;;;;;;219.15;61.80;;;;;;;;;;6348893;22;20180;-95
2022/02/25 09:19:22;;;;;;;229.80;64.97;;;;;;;;;;6349363;22;20178;-95
2022/02/25 09:21:51;;;;;;;233.38;65.13;;;;;;;;;;6346340;22;20197;-94
2022/02/25 09:24:19;;;;;;;215.00;63.70;;;;;;;;;;6347304;22;20181;-95
2022/02/25 09:26:46;;;;;;;226.35;65.30;;;;;;;;;;6345874;22;20245;-94
2022/02/25 09:29:13;;;;;;;241.68;67.38;;;;;;;;;;6346584;22;20229;-95
2022/02/25 09:31:39;;;;;;;225.30;63.53;;;;;;;;;;6351233;22;20208;-94
2022/02/25 09:34:06;;;;;;;221.70;64.97;;;;;;;;;;6347660;22;20170;-95
2022/02/25 09:36:33;;;;;;;221.30;64.95;;;;;;;;;;6348660;22;20173;-95
2022/02/25 09:39:01;;;;;;;219.95;63.80;;;;;;;;;;6348148;22;20802;-96
2022/02/25 09:41:27;;;;;;;222.93;64.53;;;;;;;;;;6351946;22;20173;-96
2022/02/25 09:43:54;;;;;;;270.27;69.55;;;;;;;;;;6350631;22;20169;-96
2022/02/25 09:46:20;;;;;;;247.40;68.15;;;;;;;;;;6351418;22;20577;-96
2022/02/25 09:48:47;;;;;;;332.25;75.47;;;;;;;;;;6349912;22;20173;-96
2022/02/25 09:51:14;;;;;;;241.75;65.65;;;;;;;;;;6358713;22;20176;-96
2022/02/25 09:57:00;;;;;;;299.88;69.35;;;;;;;;;;6364559;22;20205;-95
2022/02/25 09:59:28;;;;;;;249.88;66.22;;;;;;;;;;6353422;22;20449;-96
2022/02/25 10:02:02;;;;;;;239.32;66.90;;;;;;;;;;6352731;22;20212;-96
2022/02/25 10:04:29;;;;;;;356.42;79.35;;;;;;;;;;6353010;22;20226;-96
2022/02/25 10:06:55;;;;;;;344.67;79.32;;;;;;;;;;6351995;22;20173;-96
2022/02/25 10:09:28;;;;;;;230.07;67.72;;;;;;;;;;6349813;22;20202;-95
2022/02/25 10:12:01;;;;;;;231.45;66.85;;;;;;;;;;6351677;22;20192;-95
2022/02/25 10:14:32;;;;;;;232.32;67.90;;;;;;;;;;6356623;22;20206;-96
2022/02/25 10:19:28;;;;;;;257.67;71.05;;;;;;;;;;6386620;22;20207;-96
2022/02/25 10:22:11;;;;;;;254.82;70.07;;;;;;;;;;6390750;22;20226;-96
2022/02/25 10:24:43;;;;;;;268.85;72.95;;;;;;;;;;6383809;22;20173;-96
2022/02/25 10:27:16;;;;;;;267.60;71.90;;;;;;;;;;6382884;22;20173;-96
2022/02/25 10:29:52;;;;;;;268.77;70.63;;;;;;;;;;6387337;22;20169;-96
2022/02/25 10:32:22;;;;;;;277.58;74.30;;;;;;;;;;6392919;22;20179;-96
2022/02/25 10:35:00;;;;;;;267.20;72.85;;;;;;;;;;6395653;22;20192;-95
2022/02/25 10:40:09;;;;;;;451.58;103.93;;;;;;;;;;6282807;22;20211;-96
2022/02/25 10:45:12;;;;;;;589.55;136.13;;;;;;;;;;6327690;22;20208;-96
2022/02/25 10:47:43;;;;;;;518.28;117.57;;;;;;;;;;6392718;22;20183;-96
2022/02/25 10:50:11;;;;;;;237.23;68.60;;;;;;;;;;6401285;22;20209;-95
2022/02/25 10:53:09;;;;;;;246.00;70.27;;;;;;;;;;6373009;22;20423;-96
2022/02/25 10:55:36;;;;;;;243.23;70.10;;;;;;;;;;6399395;22;20402;-96
2022/02/25 10:58:12;;;;;;;243.87;71.87;;;;;;;;;;6351315;22;20467;-95
2022/02/25 11:00:40;;;;;;;239.13;70.70;;;;;;;;;;6340377;22;20443;-95
2022/02/25 11:03:07;;;;;;;234.57;69.80;;;;;;;;;;6360423;22;20465;-94
2022/02/25 11:08:28;;;;;;;232.57;69.80;;;;;;;;;;6313193;22;20445;-96
2022/02/25 11:14:08;;;;;;;223.90;67.97;;;;;;;;;;6349231;22;21073;-96
2022/02/25 11:22:14;;;;;;;231.40;70.10;;;;;;;;;;6364677;22;20440;-95
2022/02/25 11:27:44;;;;;;;227.37;68.00;;;;;;;;;;6362547;22;20445;-92
2022/02/25 11:30:12;;;;;;;232.50;71.53;;;;;;;;;;6381236;22;20417;-95
2022/02/25 11:32:40;;;;;;;231.00;70.60;;;;;;;;;;6379809;22;20466;-93
2022/02/25 11:38:11;;;;;;;226.20;69.40;;;;;;;;;;6387602;22;20385;-93
2022/02/25 11:43:13;;;;;;;224.60;68.33;;;;;;;;;;6392579;22;20465;-93
2022/02/25 11:45:48;;;;;;;241.13;71.80;;;;;;;;;;6378670;22;20461;-96
2022/02/25 11:50:49;;;;;;;230.80;71.10;;;;;;;;;;6383382;22;20450;-95
2022/02/25 11:53:20;;;;;;;225.30;70.30;;;;;;;;;;6356008;22;20399;-95
2022/02/25 11:55:47;;;;;;;223.80;69.70;;;;;;;;;;6384666;22;20395;-95
2022/02/25 12:04:12;;;;;;;258.70;75.87;;;;;;;;;;6393112;22;20454;-96
2022/02/25 12:06:59;;;;;;;239.20;71.70;;;;;;;;;;6369783;22;20455;-96
2022/02/25 12:09:52;;;;;;;229.27;68.47;;;;;;;;;;6358271;22;20432;-96
2022/02/25 12:12:37;;;;;;;236.10;72.80;;;;;;;;;;6358900;22;20423;-94
2022/02/25 12:15:09;;;;;;;237.60;75.30;;;;;;;;;;6354460;22;20423;-94
2022/02/25 12:17:36;;;;;;;235.70;73.40;;;;;;;;;;6350157;22;20408;-95
2022/02/25 12:20:11;;;;;;;239.70;75.50;;;;;;;;;;6323800;22;20449;-95
2022/02/25 12:22:50;;;;;;;241.90;77.67;;;;;;;;;;6394867;22;20853;-94
2022/02/25 12:25:46;;;;;;;234.60;72.23;;;;;;;;;;6394796;22;20417;-96
2022/02/25 12:28:31;;;;;;;242.03;75.33;;;;;;;;;;6372163;22;20407;-95
2022/02/25 12:33:30;;;;;;;252.10;83.53;;;;;;;;;;6353277;22;20434;-93
2022/02/25 12:38:41;;;;;;;247.43;81.60;;;;;;;;;;6347477;22;20404;-94
2022/02/25 12:41:12;;;;;;;270.20;85.50;;;;;;;;;;6346370;22;20451;-94
2022/02/25 12:46:29;;;;;;;271.87;87.13;;;;;;;;;;6339956;22;20412;-96
2022/02/25 12:51:37;;;;;;;280.20;87.97;;;;;;;;;;6376624;22;20579;-95
2022/02/25 12:54:06;;;;;;;283.80;90.30;;;;;;;;;;6324839;22;20505;-94
2022/02/25 12:56:33;;;;;;;278.40;88.87;;;;;;;;;;6307649;22;20920;-95
2022/02/25 12:59:01;;;;;;;278.63;89.50;;;;;;;;;;6348296;22;20403;-93
2022/02/25 13:01:28;;;;;;;278.93;86.80;;;;;;;;;;6349217;22;20400;-92
2022/02/25 13:03:58;;;;;;;281.67;88.57;;;;;;;;;;6347730;22;20403;-94
2022/02/25 13:06:59;;;;;;;266.93;85.50;;;;;;;;;;6353970;22;20387;-95
2022/02/25 13:14:58;;;;;;;293.70;90.60;;;;;;;;;;6323066;22;20460;-96
2022/02/25 13:20:15;;;;;;;277.57;83.77;;;;;;;;;;6367165;22;20457;-95
2022/02/25 13:27:55;;;;;;;305.77;88.60;;;;;;;;;;6319425;22;20474;-95
2022/02/25 13:46:52;;;;;;;303.37;88.80;;;;;;;;;;6374231;22;20450;-96
2022/02/25 13:54:56;;;;;;;307.47;89.80;;;;;;;;;;6334676;22;20402;-96
2022/02/25 13:57:23;;;;;;;302.37;88.00;;;;;;;;;;6388920;22;20411;-95
2022/02/25 13:59:51;;;;;;;301.77;88.10;;;;;;;;;;6392225;22;20432;-96
2022/02/25 14:02:26;;;;;;;299.90;87.00;;;;;;;;;;6394130;22;20396;-96
2022/02/25 14:05:02;;;;;;;303.40;87.47;;;;;;;;;;6399796;22;20398;-95
2022/02/25 14:10:32;;;;;;;291.27;85.40;;;;;;;;;;6368433;22;20474;-94
2022/02/25 14:13:00;;;;;;;297.97;86.97;;;;;;;;;;6388713;22;20499;-94
2022/02/25 14:18:36;;;;;;;305.73;87.30;;;;;;;;;;6333616;22;20414;-96
2022/02/25 14:21:06;;;;;;;305.23;88.80;;;;;;;;;;6389144;22;20413;-96
2022/02/25 14:23:36;;;;;;;309.30;89.53;;;;;;;;;;6361565;22;20477;-96
2022/02/25 14:26:03;;;;;;;305.43;87.07;;;;;;;;;;6397219;22;20402;-96
2022/02/25 14:39:19;;;;;;;306.70;93.43;;;;;;;;;;6344174;22;20449;-95
2022/02/25 14:41:55;;;;;;;306.47;87.27;;;;;;;;;;6382669;22;20414;-96
2022/02/25 14:44:22;;;;;;;303.67;89.57;;;;;;;;;;6385536;22;20960;-96
2022/02/25 14:46:49;;;;;;;313.10;91.47;;;;;;;;;;6386695;22;20410;-96
2022/02/25 14:49:15;;;;;;;308.53;93.33;;;;;;;;;;6387071;22;20442;-95
2022/02/25 14:51:42;;;;;;;310.07;92.87;;;;;;;;;;6385199;22;20436;-93
2022/02/25 14:54:09;;;;;;;300.90;89.70;;;;;;;;;;6381444;22;20455;-95
2022/02/25 14:56:37;;;;;;;300.43;88.60;;;;;;;;;;6382008;22;20474;-95
2022/02/25 14:59:03;;;;;;;321.33;94.17;;;;;;;;;;6381330;22;20411;-94
2022/02/25 15:01:30;;;;;;;327.07;96.57;;;;;;;;;;6379516;22;20805;-95
2022/02/25 15:04:00;;;;;;;342.63;97.70;;;;;;;;;;6381414;22;20425;-95
2022/02/25 15:06:27;;;;;;;326.57;92.00;;;;;;;;;;6380397;22;20440;-94
2022/02/25 15:08:53;;;;;;;335.90;94.17;;;;;;;;;;6380038;22;20402;-94
2022/02/25 15:11:20;;;;;;;337.77;95.40;;;;;;;;;;6380889;22;20755;-94
2022/02/25 15:13:49;;;;;;;321.87;91.00;;;;;;;;;;6384125;22;20462;-96
2022/02/25 15:16:16;;;;;;;372.93;101.57;;;;;;;;;;6378176;22;20407;-94
2022/02/25 15:18:43;;;;;;;334.57;95.17;;;;;;;;;;6358622;22;20403;-96
2022/02/25 15:21:10;;;;;;;331.27;92.63;;;;;;;;;;6383428;22;20775;-94
2022/02/25 15:23:36;;;;;;;341.30;94.87;;;;;;;;;;6387498;22;20407;-95
2022/02/25 15:26:07;;;;;;;344.27;95.60;;;;;;;;;;6393865;22;20470;-96
2022/02/25 15:28:35;;;;;;;349.20;95.23;;;;;;;;;;6395078;22;20418;-95
2022/02/25 15:31:04;;;;;;;365.83;94.70;;;;;;;;;;6394538;22;20410;-95
2022/02/25 15:33:36;;;;;;;339.70;90.50;;;;;;;;;;6365887;22;20438;-94
2022/02/25 15:36:02;;;;;;;342.17;93.63;;;;;;;;;;6393840;22;20390;-95
2022/02/25 15:38:29;;;;;;;340.00;90.87;;;;;;;;;;6393360;22;20862;-95
2022/02/25 15:40:56;;;;;;;347.03;93.87;;;;;;;;;;6385237;22;20435;-96
2022/02/25 15:43:23;;;;;;;350.57;96.87;;;;;;;;;;6383706;22;20419;-94
2022/02/25 15:45:50;;;;;;;356.10;96.47;;;;;;;;;;6380984;22;20475;-95
2022/02/25 15:48:18;;;;;;;362.57;91.63;;;;;;;;;;6384543;22;20403;-96
2022/02/25 15:50:48;;;;;;;379.77;98.27;;;;;;;;;;6387422;22;20411;-95
2022/02/25 15:53:16;;;;;;;380.97;101.67;;;;;;;;;;6376791;22;20454;-95
2022/02/25 15:55:43;;;;;;;392.70;105.87;;;;;;;;;;6389887;22;20900;-95
2022/02/25 15:58:10;;;;;;;388.70;101.38;;;;;;;;;;6392034;22;20415;-95
2022/02/25 16:00:36;;;;;;;380.75;100.70;;;;;;;;;;6394188;22;20252;-95
2022/02/25 16:03:03;;;;;;;395.23;100.35;;;;;;;;;;6390858;22;20172;-95
2022/02/25 16:05:31;;;;;;;402.00;101.85;;;;;;;;;;6385112;22;20207;-95
2022/02/25 16:07:58;;;;;;;379.38;96.20;;;;;;;;;;6377295;22;20232;-95
2022/02/25 16:10:26;;;;;;;378.48;95.97;;;;;;;;;;6379369;22;20173;-95
2022/02/25 16:12:52;;;;;;;371.52;89.60;;;;;;;;;;6378908;22;20172;-95
2022/02/25 16:15:19;;;;;;;366.35;89.82;;;;;;;;;;6379656;22;20257;-90
2022/02/25 16:17:45;;;;;;;357.75;86.57;;;;;;;;;;6380906;22;20227;-92
2022/02/25 16:20:15;;;;;;;367.05;86.70;;;;;;;;;;6380202;22;20172;-93
2022/02/25 16:22:43;;;;;;;368.73;86.80;;;;;;;;;;6376983;22;20228;-93
2022/02/25 16:25:11;;;;;;;365.50;84.65;;;;;;;;;;6377874;22;20581;-92
2022/02/25 16:27:38;;;;;;;369.17;85.18;;;;;;;;;;6379290;22;20179;-93
2022/02/25 16:30:05;;;;;;;375.10;85.90;;;;;;;;;;6379918;22;20172;-93
2022/02/25 16:32:31;;;;;;;369.98;83.45;;;;;;;;;;6380391;22;20172;-92
2022/02/25 16:34:59;;;;;;;373.83;83.05;;;;;;;;;;6380205;22;20253;-93
2022/02/25 16:37:25;;;;;;;367.40;78.03;;;;;;;;;;6379214;22;20602;-93
2022/02/25 16:39:53;;;;;;;376.83;81.55;;;;;;;;;;6378939;22;20200;-92
2022/02/25 16:42:21;;;;;;;380.80;81.93;;;;;;;;;;6380637;22;20172;-94
2022/02/25 16:44:48;;;;;;;383.73;82.50;;;;;;;;;;6380046;22;20173;-93
2022/02/25 16:47:14;;;;;;;379.02;83.72;;;;;;;;;;6376382;22;20687;-92
2022/02/25 16:49:41;;;;;;;381.00;83.63;;;;;;;;;;6377332;22;20168;-91
2022/02/25 16:52:07;;;;;;;373.38;82.13;;;;;;;;;;6379620;22;20176;-92
2022/02/25 16:54:34;;;;;;;378.90;82.20;;;;;;;;;;6379285;22;20197;-92
2022/02/25 16:57:03;;;;;;;378.55;81.93;;;;;;;;;;6381069;22;20199;-92
2022/02/25 16:59:30;;;;;;;369.95;78.05;;;;;;;;;;6381834;22;20187;-92
2022/02/25 17:01:57;;;;;;;375.00;82.45;;;;;;;;;;6381976;22;20177;-91
2022/02/25 17:04:24;;;;;;;371.60;79.85;;;;;;;;;;6382465;22;20187;-92
2022/02/25 17:06:50;;;;;;;377.60;80.60;;;;;;;;;;6378395;22;20173;-91
2022/02/25 17:09:19;;;;;;;375.05;83.38;;;;;;;;;;6377858;22;20534;-92
2022/02/25 17:11:45;;;;;;;373.30;81.05;;;;;;;;;;6380763;22;20200;-91
2022/02/25 17:14:13;;;;;;;370.05;81.35;;;;;;;;;;6380503;22;20200;-91
2022/02/25 17:16:39;;;;;;;387.83;84.38;;;;;;;;;;6378312;22;20567;-92
2022/02/25 17:19:06;;;;;;;374.98;82.65;;;;;;;;;;6378581;22;20218;-92
2022/02/25 17:21:32;;;;;;;362.17;77.60;;;;;;;;;;6379916;22;20173;-92
2022/02/25 17:23:59;;;;;;;363.05;79.00;;;;;;;;;;6380184;22;20180;-91
2022/02/25 17:26:25;;;;;;;369.13;80.30;;;;;;;;;;6372378;22;20233;-91
2022/02/25 17:28:53;;;;;;;350.90;73.47;;;;;;;;;;6375761;22;20229;-92
2022/02/25 17:31:21;;;;;;;358.30;75.32;;;;;;;;;;6375116;22;20173;-92
2022/02/25 17:33:48;;;;;;;357.17;77.00;;;;;;;;;;6379150;22;20211;-91
2022/02/25 17:36:16;;;;;;;352.75;75.28;;;;;;;;;;6378071;22;20622;-90
2022/02/25 17:38:43;;;;;;;354.80;77.00;;;;;;;;;;6377156;22;20172;-91
2022/02/25 17:41:09;;;;;;;353.35;73.03;;;;;;;;;;6377484;22;20177;-91
2022/02/25 17:43:37;;;;;;;352.02;73.70;;;;;;;;;;6379112;22;20176;-91
2022/02/25 17:46:04;;;;;;;358.98;76.72;;;;;;;;;;6377976;22;20200;-91
2022/02/25 17:48:32;;;;;;;351.08;74.80;;;;;;;;;;6376828;22;20173;-91
2022/02/25 17:50:59;;;;;;;344.15;73.47;;;;;;;;;;6378446;22;20230;-92
2022/02/25 17:53:26;;;;;;;351.33;76.25;;;;;;;;;;6379853;22;20173;-91
2022/02/25 17:55:53;;;;;;;348.30;77.93;;;;;;;;;;6379609;22;20207;-93
2022/02/25 17:58:19;;;;;;;345.45;73.88;;;;;;;;;;6377800;22;20177;-91
2022/02/25 18:00:46;;;;;;;343.00;71.30;;;;;;;;;;6377023;22;20198;-91
2022/02/25 18:03:12;;;;;;;354.90;74.68;;;;;;;;;;6378064;22;20177;-92
2022/02/25 18:05:40;;;;;;;361.63;77.97;;;;;;;;;;6378640;22;20177;-93
2022/02/25 18:08:06;;;;;;;367.33;79.55;;;;;;;;;;6378936;22;20194;-92
2022/02/25 18:10:33;;;;;;;376.10;79.80;;;;;;;;;;6380236;22;20194;-93
2022/02/25 18:13:00;;;;;;;374.90;78.07;;;;;;;;;;6381112;22;20219;-92
2022/02/25 18:15:26;;;;;;;378.65;79.00;;;;;;;;;;6380398;22;20765;-91
2022/02/25 18:17:55;;;;;;;372.55;76.40;;;;;;;;;;6381523;22;20249;-92
2022/02/25 18:20:21;;;;;;;379.70;77.72;;;;;;;;;;6381119;22;20195;-91
2022/02/25 18:22:49;;;;;;;370.40;77.85;;;;;;;;;;6380527;22;20181;-91
2022/02/25 18:25:17;;;;;;;380.27;78.80;;;;;;;;;;6381008;22;20172;-92
2022/02/25 18:27:43;;;;;;;382.65;80.38;;;;;;;;;;6376669;22;20196;-91
2022/02/25 18:30:10;;;;;;;372.70;79.38;;;;;;;;;;6376040;22;20176;-91
2022/02/25 18:32:37;;;;;;;371.30;76.15;;;;;;;;;;6381324;22;20229;-91
2022/02/25 18:35:05;;;;;;;361.00;73.53;;;;;;;;;;6381212;22;20196;-91
2022/02/25 18:37:32;;;;;;;351.95;71.60;;;;;;;;;;6381650;22;20173;-91
2022/02/25 18:40:00;;;;;;;352.88;69.75;;;;;;;;;;6380361;22;20223;-91
2022/02/25 18:42:26;;;;;;;347.85;71.05;;;;;;;;;;6380048;22;20194;-92
2022/02/25 18:44:52;;;;;;;357.75;70.25;;;;;;;;;;6378062;22;20172;-91
2022/02/25 18:47:19;;;;;;;343.17;70.45;;;;;;;;;;6376865;22;20530;-92
2022/02/25 18:49:45;;;;;;;340.75;74.35;;;;;;;;;;6377707;22;20173;-92
2022/02/25 18:52:12;;;;;;;331.52;67.57;;;;;;;;;;6380138;22;20225;-92
2022/02/25 18:54:38;;;;;;;323.95;66.03;;;;;;;;;;6379875;22;20204;-92
2022/02/25 18:57:07;;;;;;;342.70;73.80;;;;;;;;;;6380341;22;20200;-92
2022/02/25 18:59:34;;;;;;;323.63;69.07;;;;;;;;;;6379770;22;20560;-92
2022/02/25 19:02:00;;;;;;;323.50;68.88;;;;;;;;;;6380919;22;20172;-92
2022/02/25 19:04:27;;;;;;;337.73;71.30;;;;;;;;;;6381139;22;20692;-92
2022/02/25 19:06:53;;;;;;;338.90;73.60;;;;;;;;;;6379895;22;20349;-92
2022/02/25 19:09:20;;;;;;;327.05;69.43;;;;;;;;;;6380175;22;20203;-92
2022/02/25 19:11:46;;;;;;;325.83;67.97;;;;;;;;;;6379434;22;20173;-93
2022/02/25 19:14:15;;;;;;;345.95;72.50;;;;;;;;;;6379450;22;20172;-93
2022/02/25 19:16:41;;;;;;;335.02;72.97;;;;;;;;;;6379586;22;20692;-92
2022/02/25 19:19:08;;;;;;;324.08;69.00;;;;;;;;;;6381002;22;20173;-92
2022/02/25 19:21:34;;;;;;;324.95;68.90;;;;;;;;;;6378918;22;20173;-92
2022/02/25 19:24:01;;;;;;;340.45;74.05;;;;;;;;;;6377674;22;20206;-92
2022/02/25 19:26:27;;;;;;;328.50;68.68;;;;;;;;;;6377975;22;20172;-91
2022/02/25 19:28:54;;;;;;;319.65;70.60;;;;;;;;;;6377097;22;20195;-92
2022/02/25 19:31:22;;;;;;;323.65;68.22;;;;;;;;;;6378495;22;20554;-92
2022/02/25 19:33:51;;;;;;;310.02;66.43;;;;;;;;;;6379913;22;20177;-92
2022/02/25 19:36:18;;;;;;;315.73;67.80;;;;;;;;;;6365806;22;20232;-91
2022/02/25 19:38:44;;;;;;;308.58;65.40;;;;;;;;;;6377487;22;20199;-92
2022/02/25 19:41:11;;;;;;;318.65;65.00;;;;;;;;;;6379270;22;20172;-92
2022/02/25 19:43:38;;;;;;;312.45;66.85;;;;;;;;;;6379550;22;20686;-92
2022/02/25 19:46:04;;;;;;;320.08;65.47;;;;;;;;;;6379588;22;20172;-92
2022/02/25 19:48:32;;;;;;;318.98;66.75;;;;;;;;;;6377692;22;20230;-92
2022/02/25 19:50:59;;;;;;;319.10;67.90;;;;;;;;;;6377585;22;20188;-92
2022/02/25 19:53:26;;;;;;;305.25;62.33;;;;;;;;;;6380566;22;20194;-92
2022/02/25 19:55:53;;;;;;;301.13;62.58;;;;;;;;;;6379420;22;20210;-92
2022/02/25 19:58:20;;;;;;;311.15;65.03;;;;;;;;;;6379188;22;20173;-93
2022/02/25 20:00:47;;;;;;;309.08;62.67;;;;;;;;;;6380197;22;20173;-92
2022/02/25 20:03:14;;;;;;;304.20;64.75;;;;;;;;;;6378897;22;20172;-94
2022/02/25 20:05:42;;;;;;;305.65;64.50;;;;;;;;;;6379587;22;20176;-93
2022/02/25 20:08:08;;;;;;;300.85;63.42;;;;;;;;;;6376815;22;20173;-92
2022/02/25 20:10:35;;;;;;;304.48;65.90;;;;;;;;;;6377672;22;20173;-91
2022/02/25 20:13:01;;;;;;;312.73;67.07;;;;;;;;;;6374873;22;20177;-91
2022/02/25 20:15:28;;;;;;;305.63;63.53;;;;;;;;;;6376382;22;20246;-93
2022/02/25 20:17:54;;;;;;;301.38;64.82;;;;;;;;;;6377467;22;20173;-92
2022/02/25 20:20:21;;;;;;;305.20;65.13;;;;;;;;;;6377580;22;20177;-91
2022/02/25 20:22:50;;;;;;;297.75;64.10;;;;;;;;;;6377618;22;20176;-92
2022/02/25 20:25:16;;;;;;;300.73;65.00;;;;;;;;;;6377880;22;20870;-91
2022/02/25 20:27:43;;;;;;;293.48;61.00;;;;;;;;;;6379914;22;20198;-91
2022/02/25 20:30:10;;;;;;;293.77;63.28;;;;;;;;;;6379487;22;20635;-91
2022/02/25 20:32:37;;;;;;;301.35;64.00;;;;;;;;;;6375677;22;20173;-92
2022/02/25 20:35:04;;;;;;;302.05;64.25;;;;;;;;;;6379760;22;20219;-91
2022/02/25 20:37:31;;;;;;;314.52;64.88;;;;;;;;;;6380883;22;20177;-92